Time;durP1;ratioP1;P1;durP2;ratioP2;P2;SDS_P1;SDS_P2;PMS_P1;PMS_P2;Temp;Humidity;BMP_temperature;BMP_pressure;BME280_temperature;BME280_humidity;BME280_pressure;Samples;Min_cycle;Max_cycle;Signal;HPM_P1;HPM_P2
2022/08/24 00:01:06;;;;;;;3.40;2.95;;;;;26.80;101619.00;;;;5089548;28;20210;-77
2022/08/24 00:03:34;;;;;;;2.97;2.67;;;;;26.80;101619.00;;;;5097296;28;20197;-77
2022/08/24 00:06:02;;;;;;;2.70;2.50;;;;;26.70;101614.00;;;;5087454;28;20201;-77
2022/08/24 00:08:30;;;;;;;3.65;2.58;;;;;26.70;101616.00;;;;5088334;28;20675;-77
2022/08/24 00:10:58;;;;;;;3.72;2.88;;;;;26.70;101615.00;;;;5088888;28;20206;-77
2022/08/24 00:13:28;;;;;;;3.63;2.40;;;;;26.70;101619.00;;;;5088705;28;20227;-77
2022/08/24 00:15:56;;;;;;;3.60;2.55;;;;;26.70;101619.00;;;;5086345;28;20210;-78
2022/08/24 00:18:24;;;;;;;3.33;3.03;;;;;26.60;101620.00;;;;5089398;28;20194;-77
2022/08/24 00:20:52;;;;;;;3.28;2.95;;;;;26.60;101629.00;;;;5087686;28;20202;-77
2022/08/24 00:23:20;;;;;;;3.30;2.97;;;;;26.60;101623.00;;;;5070657;28;20198;-77
2022/08/24 00:25:47;;;;;;;3.20;2.22;;;;;26.60;101619.00;;;;5081319;28;20609;-77
2022/08/24 00:28:15;;;;;;;2.88;2.65;;;;;26.60;101625.00;;;;5081338;28;20226;-78
2022/08/24 00:30:43;;;;;;;3.78;2.88;;;;;26.50;101625.00;;;;5086404;28;20222;-78
2022/08/24 00:33:11;;;;;;;3.03;2.72;;;;;26.50;101629.00;;;;5087073;28;20226;-77
2022/08/24 00:35:38;;;;;;;2.75;2.53;;;;;26.50;101627.00;;;;5086076;28;20202;-77
2022/08/24 00:38:05;;;;;;;8.07;2.58;;;;;26.50;101627.00;;;;5086017;28;20483;-77
2022/08/24 00:40:36;;;;;;;4.65;2.60;;;;;26.40;101624.00;;;;5086822;28;20202;-77
2022/08/24 00:43:07;;;;;;;4.63;2.20;;;;;26.40;101624.00;;;;5086495;28;20280;-77
2022/08/24 00:45:55;;;;;;;3.88;2.58;;;;;26.30;101628.00;;;;5086903;28;20198;-77
2022/08/24 00:48:27;;;;;;;2.85;2.65;;;;;26.40;101621.00;;;;5102938;28;20202;-77
2022/08/24 00:50:58;;;;;;;3.40;2.28;;;;;26.30;101628.00;;;;5067886;28;20210;-77
2022/08/24 00:53:30;;;;;;;2.40;2.20;;;;;26.30;101618.00;;;;5084674;28;20215;-77
2022/08/24 00:56:00;;;;;;;2.88;2.67;;;;;26.30;101622.00;;;;5084307;28;20202;-77
2022/08/24 00:58:33;;;;;;;2.95;2.38;;;;;26.30;101622.00;;;;5087662;28;20657;-77
2022/08/24 01:01:05;;;;;;;2.63;2.42;;;;;26.30;101625.00;;;;5087513;28;20194;-77
2022/08/24 01:03:33;;;;;;;4.78;2.28;;;;;26.30;101613.00;;;;5090833;28;20202;-77
2022/08/24 01:06:01;;;;;;;3.00;2.65;;;;;26.30;101617.00;;;;5078818;28;20668;-77
2022/08/24 01:08:29;;;;;;;2.38;2.17;;;;;26.30;101617.00;;;;5086108;28;20284;-77
2022/08/24 01:11:02;;;;;;;2.95;2.70;;;;;26.20;101602.00;;;;5086048;28;20695;-77
2022/08/24 01:13:33;;;;;;;2.53;2.33;;;;;26.20;101600.00;;;;5087911;28;20221;-77
2022/08/24 01:16:06;;;;;;;2.45;2.10;;;;;26.20;101602.00;;;;5084181;28;20299;-77
2022/08/24 01:18:49;;;;;;;2.13;1.95;;;;;26.20;101596.00;;;;5087694;28;20206;-77
2022/08/24 01:21:20;;;;;;;2.60;2.40;;;;;26.20;101595.00;;;;5087152;28;20210;-77
2022/08/24 01:23:51;;;;;;;2.65;2.42;;;;;26.10;101599.00;;;;5086673;28;20199;-77
2022/08/24 01:26:23;;;;;;;8.07;2.35;;;;;26.10;101604.00;;;;5086955;28;20210;-77
2022/08/24 01:28:56;;;;;;;3.40;2.75;;;;;26.10;101597.00;;;;5076432;28;20207;-77
2022/08/24 01:31:24;;;;;;;3.60;2.53;;;;;26.10;101597.00;;;;5105203;28;20202;-77
2022/08/24 01:33:53;;;;;;;2.50;2.08;;;;;26.10;101601.00;;;;5096088;28;20734;-77
2022/08/24 01:36:27;;;;;;;2.42;2.22;;;;;26.00;101596.00;;;;5086398;28;20844;-77
2022/08/24 01:39:00;;;;;;;3.25;2.42;;;;;26.00;101595.00;;;;5090768;28;20217;-77
2022/08/24 01:41:27;;;;;;;4.43;2.25;;;;;26.00;101598.00;;;;5074897;28;20721;-77
2022/08/24 01:43:55;;;;;;;2.50;2.30;;;;;26.00;101592.00;;;;5084416;28;20195;-77
2022/08/24 01:46:23;;;;;;;2.80;2.53;;;;;26.00;101602.00;;;;5091120;28;20198;-77
2022/08/24 01:48:50;;;;;;;2.55;1.77;;;;;26.00;101603.00;;;;5091413;28;20198;-77
2022/08/24 01:51:19;;;;;;;2.90;2.40;;;;;26.00;101605.00;;;;5091150;28;20191;-77
2022/08/24 01:53:47;;;;;;;2.75;2.28;;;;;26.00;101607.00;;;;5088510;28;20360;-77
2022/08/24 01:56:15;;;;;;;2.70;2.15;;;;;25.90;101603.00;;;;5091086;28;20233;-77
2022/08/24 01:58:47;;;;;;;2.75;2.53;;;;;25.90;101607.00;;;;5090808;28;20205;-77
2022/08/24 02:01:16;;;;;;;3.38;2.55;;;;;25.90;101602.00;;;;5091375;28;20201;-77
2022/08/24 02:03:43;;;;;;;3.10;2.55;;;;;25.90;101603.00;;;;5089332;28;20202;-78
2022/08/24 02:06:11;;;;;;;2.85;2.35;;;;;25.90;101616.00;;;;5084660;28;20730;-77
2022/08/24 02:08:39;;;;;;;3.55;2.50;;;;;25.90;101622.00;;;;5072333;28;20282;-77
2022/08/24 02:11:08;;;;;;;5.07;3.15;;;;;25.80;101617.00;;;;5087001;28;20672;-77
2022/08/24 02:13:38;;;;;;;4.28;2.92;;;;;25.80;101622.00;;;;5088932;28;20318;-77
2022/08/24 02:16:06;;;;;;;3.60;3.15;;;;;25.80;101626.00;;;;5090840;28;20214;-77
2022/08/24 02:18:34;;;;;;;3.22;2.67;;;;;25.80;101622.00;;;;5070875;28;20224;-77
2022/08/24 02:21:02;;;;;;;3.05;2.25;;;;;25.80;101620.00;;;;5087682;28;20781;-77
2022/08/24 02:23:29;;;;;;;2.92;2.47;;;;;25.80;101629.00;;;;5087761;28;20198;-77
2022/08/24 02:25:57;;;;;;;5.07;2.33;;;;;25.70;101619.00;;;;5091200;28;20201;-77
2022/08/24 02:28:25;;;;;;;2.42;2.22;;;;;25.70;101620.00;;;;5088706;28;20220;-77
2022/08/24 02:30:54;;;;;;;2.47;2.25;;;;;25.70;101626.00;;;;5090007;28;20214;-77
2022/08/24 02:33:22;;;;;;;2.45;2.20;;;;;25.70;101616.00;;;;5089250;28;20198;-77
2022/08/24 02:35:49;;;;;;;3.92;2.80;;;;;25.70;101621.00;;;;5096539;28;20613;-77
2022/08/24 02:38:17;;;;;;;3.75;2.60;;;;;25.70;101614.00;;;;5090081;28;20202;-77
2022/08/24 02:40:44;;;;;;;4.72;2.72;;;;;25.70;101612.00;;;;5082400;28;20203;-77
2022/08/24 02:43:12;;;;;;;5.13;2.75;;;;;25.60;101602.00;;;;5070122;28;20230;-77
2022/08/24 02:45:41;;;;;;;3.92;2.35;;;;;25.60;101608.00;;;;5080498;28;20198;-77
2022/08/24 02:48:10;;;;;;;2.80;2.38;;;;;25.60;101609.00;;;;5089228;28;20301;-77
2022/08/24 02:50:39;;;;;;;2.33;2.10;;;;;25.60;101609.00;;;;5107299;28;20201;-77
2022/08/24 02:53:06;;;;;;;4.15;2.53;;;;;25.60;101613.00;;;;5093747;28;20264;-77
2022/08/24 02:55:34;;;;;;;3.80;2.60;;;;;25.60;101613.00;;;;5088471;28;20229;-77
2022/08/24 02:58:01;;;;;;;3.15;2.20;;;;;25.60;101602.00;;;;5089632;28;20208;-77
2022/08/24 03:00:28;;;;;;;3.30;2.15;;;;;25.50;101607.00;;;;5089131;28;20668;-77
2022/08/24 03:02:56;;;;;;;2.85;2.50;;;;;25.50;101609.00;;;;5089302;28;20217;-77
2022/08/24 03:05:28;;;;;;;3.15;2.28;;;;;25.50;101614.00;;;;5085176;28;20198;-77
2022/08/24 03:07:56;;;;;;;2.33;2.13;;;;;25.50;101618.00;;;;5089123;28;20197;-77
2022/08/24 03:10:24;;;;;;;3.08;2.78;;;;;25.50;101614.00;;;;5089753;28;20195;-77
2022/08/24 03:12:52;;;;;;;2.78;2.40;;;;;25.50;101618.00;;;;5088349;28;20587;-77
2022/08/24 03:15:21;;;;;;;2.30;1.90;;;;;25.40;101627.00;;;;5087643;28;20260;-77
2022/08/24 03:17:49;;;;;;;3.22;2.45;;;;;25.40;101627.00;;;;5078768;28;20203;-77
2022/08/24 03:20:19;;;;;;;2.67;2.33;;;;;25.40;101623.00;;;;5088088;28;20195;-77
2022/08/24 03:22:48;;;;;;;4.00;2.15;;;;;25.40;101626.00;;;;5088214;28;20583;-77
2022/08/24 03:25:17;;;;;;;2.70;2.47;;;;;25.40;101629.00;;;;5088290;28;20202;-77
2022/08/24 03:27:44;;;;;;;3.17;2.15;;;;;25.40;101629.00;;;;5086642;28;20222;-77
2022/08/24 03:30:15;;;;;;;2.38;2.08;;;;;25.30;101625.00;;;;5073448;28;20225;-77
2022/08/24 03:32:42;;;;;;;2.85;2.40;;;;;25.30;101629.00;;;;5068677;28;20202;-77
2022/08/24 03:35:11;;;;;;;3.40;2.53;;;;;25.30;101626.00;;;;5086189;28;20229;-77
2022/08/24 03:37:39;;;;;;;2.17;1.95;;;;;25.30;101630.00;;;;5085889;28;20211;-77
2022/08/24 03:40:10;;;;;;;2.20;2.00;;;;;25.30;101625.00;;;;5087890;28;20587;-77
2022/08/24 03:42:38;;;;;;;1.90;1.70;;;;;25.30;101630.00;;;;5087731;28;20714;-77
2022/08/24 03:45:07;;;;;;;2.90;2.60;;;;;25.30;101624.00;;;;5087870;28;20206;-77
2022/08/24 03:47:34;;;;;;;2.10;1.90;;;;;25.20;101626.00;;;;5086733;28;20198;-77
2022/08/24 03:50:01;;;;;;;1.92;1.83;;;;;25.20;101629.00;;;;5088020;28;20199;-77
2022/08/24 03:52:29;;;;;;;2.80;2.13;;;;;25.20;101631.00;;;;5088080;28;20198;-77
2022/08/24 03:54:56;;;;;;;2.17;1.90;;;;;25.20;101636.00;;;;5087369;28;20225;-77
2022/08/24 03:57:25;;;;;;;2.25;1.88;;;;;25.10;101629.00;;;;5087309;28;20209;-77
2022/08/24 03:59:53;;;;;;;2.50;2.22;;;;;25.10;101631.00;;;;5087668;28;20571;-77
2022/08/24 04:02:20;;;;;;;2.30;2.10;;;;;25.10;101623.00;;;;5087988;28;20212;-77
2022/08/24 04:04:48;;;;;;;2.20;2.00;;;;;25.10;101630.00;;;;5085230;28;20198;-77
2022/08/24 04:07:15;;;;;;;2.50;2.30;;;;;25.10;101625.00;;;;5087823;28;20191;-78
2022/08/24 04:09:42;;;;;;;1.95;1.75;;;;;25.10;101630.00;;;;5088268;28;20208;-77
2022/08/24 04:12:10;;;;;;;2.05;1.95;;;;;25.10;101628.00;;;;5075171;28;20210;-77
2022/08/24 04:14:39;;;;;;;3.15;2.42;;;;;25.10;101617.00;;;;5085776;28;20290;-77
2022/08/24 04:17:06;;;;;;;3.28;2.50;;;;;25.10;101622.00;;;;5082053;28;20225;-77
2022/08/24 04:19:34;;;;;;;2.92;2.63;;;;;25.00;101624.00;;;;5085495;28;20205;-77
2022/08/24 04:22:01;;;;;;;3.17;2.42;;;;;25.00;101627.00;;;;5086291;28;20625;-77
2022/08/24 04:24:30;;;;;;;2.40;2.00;;;;;25.00;101635.00;;;;5087223;28;20202;-77
2022/08/24 04:26:58;;;;;;;2.63;2.42;;;;;25.00;101636.00;;;;5087230;28;20310;-77
2022/08/24 04:29:25;;;;;;;2.65;2.35;;;;;25.00;101641.00;;;;5077302;28;20688;-77
2022/08/24 04:31:54;;;;;;;2.42;2.22;;;;;25.00;101636.00;;;;5087794;28;20675;-77
2022/08/24 04:34:21;;;;;;;2.58;2.35;;;;;25.00;101640.00;;;;5091249;28;20226;-77
2022/08/24 04:36:48;;;;;;;3.95;2.55;;;;;25.00;101631.00;;;;5092968;28;20198;-77
2022/08/24 04:39:16;;;;;;;2.47;2.20;;;;;24.90;101636.00;;;;5087231;28;20584;-77
2022/08/24 04:41:43;;;;;;;2.70;2.45;;;;;24.90;101630.00;;;;5072139;28;20202;-77
2022/08/24 04:44:10;;;;;;;3.42;2.55;;;;;24.90;101633.00;;;;5079234;28;20210;-77
2022/08/24 04:46:38;;;;;;;2.72;2.53;;;;;24.90;101636.00;;;;5087036;28;20214;-77
2022/08/24 04:49:07;;;;;;;3.00;2.30;;;;;24.90;101637.00;;;;5086297;28;20206;-77
2022/08/24 04:51:34;;;;;;;2.75;2.47;;;;;24.90;101638.00;;;;5081443;28;20195;-77
2022/08/24 04:54:02;;;;;;;4.45;2.90;;;;;24.90;101642.00;;;;5086104;28;20543;-77
2022/08/24 04:56:29;;;;;;;2.95;2.70;;;;;24.90;101644.00;;;;5093613;28;20202;-77
2022/08/24 04:58:56;;;;;;;3.20;2.38;;;;;24.90;101638.00;;;;5083053;28;20194;-77
2022/08/24 05:01:27;;;;;;;4.53;2.50;;;;;24.90;101637.00;;;;5094033;28;20199;-77
2022/08/24 05:03:55;;;;;;;2.65;2.45;;;;;24.90;101648.00;;;;5080671;28;20202;-77
2022/08/24 05:06:27;;;;;;;2.92;2.50;;;;;24.90;101635.00;;;;5067295;28;20200;-77
2022/08/24 05:08:54;;;;;;;3.40;2.95;;;;;24.90;101640.00;;;;5078957;28;20203;-76
2022/08/24 05:11:22;;;;;;;5.35;3.90;;;;;24.90;101641.00;;;;5075359;28;20467;-77
2022/08/24 05:13:52;;;;;;;3.30;2.85;;;;;24.90;101644.00;;;;5084206;28;20202;-77
2022/08/24 05:16:20;;;;;;;3.05;2.75;;;;;24.90;101643.00;;;;5089785;28;20237;-77
2022/08/24 05:18:48;;;;;;;2.90;2.65;;;;;25.00;101643.00;;;;5087712;28;20672;-77
2022/08/24 05:21:18;;;;;;;2.97;2.55;;;;;25.00;101650.00;;;;5086360;28;20606;-77
2022/08/24 05:23:47;;;;;;;2.90;2.60;;;;;25.00;101651.00;;;;5086699;28;20197;-76
2022/08/24 05:26:17;;;;;;;3.53;3.22;;;;;25.00;101656.00;;;;5090018;28;20954;-76
2022/08/24 05:28:45;;;;;;;3.88;3.58;;;;;25.00;101658.00;;;;5088261;28;20209;-76
2022/08/24 05:31:15;;;;;;;3.80;3.38;;;;;25.10;101654.00;;;;5089141;28;20230;-76
2022/08/24 05:33:43;;;;;;;4.13;3.25;;;;;25.10;101657.00;;;;5091066;28;20202;-78
2022/08/24 05:36:17;;;;;;;3.85;3.45;;;;;25.10;101664.00;;;;5087331;28;20230;-78
2022/08/24 05:38:46;;;;;;;3.15;2.92;;;;;25.20;101668.00;;;;5089679;28;20202;-78
2022/08/24 05:41:14;;;;;;;3.30;2.90;;;;;25.20;101669.00;;;;5083531;28;20733;-80
2022/08/24 05:43:41;;;;;;;4.88;3.58;;;;;25.30;101669.00;;;;5089722;28;20202;-79
2022/08/24 05:46:09;;;;;;;3.63;3.20;;;;;25.30;101670.00;;;;5089582;28;20569;-80
2022/08/24 05:48:37;;;;;;;3.58;3.20;;;;;25.40;101672.00;;;;5084609;28;20191;-80
2022/08/24 05:51:07;;;;;;;3.33;3.03;;;;;25.40;101665.00;;;;5084727;28;20211;-80
2022/08/24 05:53:35;;;;;;;3.35;3.03;;;;;25.50;101668.00;;;;5086709;28;20222;-81
2022/08/24 05:56:05;;;;;;;3.65;3.25;;;;;25.50;101672.00;;;;5084979;28;20216;-80
2022/08/24 05:58:33;;;;;;;3.50;3.20;;;;;25.60;101667.00;;;;5086310;28;20201;-82
2022/08/24 06:01:05;;;;;;;3.53;2.90;;;;;25.60;101672.00;;;;5088079;28;20201;-81
2022/08/24 06:03:33;;;;;;;3.22;2.92;;;;;25.70;101663.00;;;;5088402;28;20205;-79
2022/08/24 06:06:01;;;;;;;4.18;3.45;;;;;25.70;101673.00;;;;5088268;28;20205;-78
2022/08/24 06:08:29;;;;;;;4.38;3.90;;;;;25.80;101673.00;;;;5097419;28;20660;-79
2022/08/24 06:10:57;;;;;;;5.07;3.85;;;;;25.80;101676.00;;;;5102544;28;20260;-78
2022/08/24 06:13:25;;;;;;;4.18;3.67;;;;;25.90;101671.00;;;;5087186;28;20206;-78
2022/08/24 06:16:03;;;;;;;5.18;3.55;;;;;25.90;101671.00;;;;5084844;28;20252;-78
2022/08/24 06:18:31;;;;;;;4.15;3.75;;;;;26.00;101671.00;;;;5089678;28;20205;-78
2022/08/24 06:20:58;;;;;;;3.42;3.13;;;;;26.10;101673.00;;;;5085492;28;20206;-78
2022/08/24 06:23:25;;;;;;;3.95;3.42;;;;;26.20;101673.00;;;;5084960;28;20607;-77
2022/08/24 06:28:39;;;;;;;5.47;3.72;;;;;26.30;101689.00;;;;5088436;28;20326;-78
2022/08/24 06:31:07;;;;;;;4.53;3.47;;;;;26.40;101688.00;;;;5087709;28;20191;-78
2022/08/24 06:33:34;;;;;;;4.53;3.92;;;;;26.50;101688.00;;;;5089704;28;20335;-78
2022/08/24 06:36:02;;;;;;;5.97;4.18;;;;;26.50;101684.00;;;;5088838;28;20596;-78
2022/08/24 06:38:29;;;;;;;4.28;3.72;;;;;26.60;101690.00;;;;5088713;28;20206;-78
2022/08/24 06:40:56;;;;;;;6.13;5.32;;;;;26.70;101690.00;;;;5087878;28;20202;-78
2022/08/24 06:43:24;;;;;;;7.72;5.85;;;;;26.80;101689.00;;;;5089817;28;20197;-78
2022/08/24 06:45:54;;;;;;;11.25;6.57;;;;;26.80;101690.00;;;;5103485;28;20206;-78
2022/08/24 06:48:22;;;;;;;11.25;7.03;;;;;27.00;101693.00;;;;5076256;28;20194;-78
2022/08/24 06:50:49;;;;;;;8.23;7.18;;;;;27.00;101703.00;;;;5088688;28;20198;-78
2022/08/24 06:53:17;;;;;;;8.82;7.72;;;;;27.10;101701.00;;;;5086557;28;20540;-78
2022/08/24 06:55:49;;;;;;;7.15;6.40;;;;;27.20;101700.00;;;;5073154;28;20722;-78
2022/08/24 06:58:16;;;;;;;7.22;6.55;;;;;27.30;101699.00;;;;5088542;28;20186;-80
2022/08/24 07:00:44;;;;;;;18.58;6.80;;;;;27.40;101700.00;;;;5084415;28;20260;-77
2022/08/24 07:03:13;;;;;;;12.32;6.32;;;;;27.50;101697.00;;;;5086193;28;20195;-77
2022/08/24 07:05:40;;;;;;;9.50;6.22;;;;;27.60;101705.00;;;;5080506;28;20648;-78
2022/08/24 07:08:09;;;;;;;9.63;6.80;;;;;27.70;101707.00;;;;5084113;28;20664;-78
2022/08/24 07:10:36;;;;;;;9.73;5.85;;;;;27.80;101707.00;;;;5085295;28;20218;-77
2022/08/24 07:13:03;;;;;;;9.38;6.28;;;;;27.90;101703.00;;;;5081010;28;20206;-78
2022/08/24 07:15:31;;;;;;;8.23;6.60;;;;;28.00;101710.00;;;;5084846;28;20214;-78
2022/08/24 07:17:58;;;;;;;8.48;7.68;;;;;28.10;101713.00;;;;5082598;28;20194;-78
2022/08/24 07:20:29;;;;;;;10.75;7.95;;;;;28.10;101711.00;;;;5086424;28;20292;-78
2022/08/24 07:22:56;;;;;;;8.43;7.53;;;;;28.20;101713.00;;;;5084473;28;20210;-78
2022/08/24 07:25:23;;;;;;;15.02;7.90;;;;;28.30;101712.00;;;;5085498;28;20197;-77
2022/08/24 07:27:51;;;;;;;8.80;7.18;;;;;28.40;101715.00;;;;5086325;28;20232;-77
2022/08/24 07:30:18;;;;;;;9.05;8.10;;;;;28.50;101712.00;;;;5083216;28;20191;-78
2022/08/24 07:32:45;;;;;;;9.35;7.10;;;;;28.60;101717.00;;;;5084831;28;20293;-78
2022/08/24 07:35:12;;;;;;;7.63;6.85;;;;;28.60;101717.00;;;;5085535;28;20225;-78
2022/08/24 07:37:41;;;;;;;10.68;8.55;;;;;28.70;101718.00;;;;5082734;28;20214;-78
2022/08/24 07:40:09;;;;;;;11.15;9.27;;;;;28.80;101725.00;;;;5084972;28;20198;-79
2022/08/24 07:42:38;;;;;;;9.65;8.50;;;;;29.00;101730.00;;;;5081823;28;20198;-77
2022/08/24 07:45:06;;;;;;;10.10;8.50;;;;;29.00;101720.00;;;;5083275;28;20205;-77
2022/08/24 07:47:34;;;;;;;11.98;10.40;;;;;29.20;101721.00;;;;5086095;28;20206;-78
2022/08/24 07:50:01;;;;;;;10.65;9.15;;;;;29.30;101727.00;;;;5086519;28;20198;-76
2022/08/24 07:52:28;;;;;;;14.85;10.43;;;;;29.40;101724.00;;;;5086801;28;20217;-77
2022/08/24 07:54:57;;;;;;;13.40;9.73;;;;;29.40;101727.00;;;;5085706;28;20194;-78
2022/08/24 07:57:25;;;;;;;9.57;7.93;;;;;29.60;101730.00;;;;5097263;28;20201;-78
2022/08/24 07:59:52;;;;;;;9.75;8.60;;;;;29.70;101733.00;;;;5108226;28;20567;-78
2022/08/24 08:02:19;;;;;;;10.77;8.55;;;;;29.80;101726.00;;;;5086592;28;20584;-78
2022/08/24 08:04:47;;;;;;;11.30;7.82;;;;;29.90;101730.00;;;;5083163;28;20225;-79
2022/08/24 08:07:16;;;;;;;14.00;8.20;;;;;30.00;101738.00;;;;5087922;28;20194;-79
2022/08/24 08:09:43;;;;;;;11.60;8.27;;;;;30.10;101738.00;;;;5087009;28;20309;-80
2022/08/24 08:12:12;;;;;;;9.40;8.23;;;;;30.20;101738.00;;;;5085004;28;20239;-80
2022/08/24 08:14:39;;;;;;;7.75;7.00;;;;;30.30;101749.00;;;;5078579;28;20672;-79
2022/08/24 08:17:06;;;;;;;7.70;6.78;;;;;30.40;101749.00;;;;5085832;28;20226;-80
2022/08/24 08:19:34;;;;;;;9.63;7.28;;;;;30.50;101747.00;;;;5085304;28;20194;-78
2022/08/24 08:24:46;;;;;;;7.57;6.72;;;;;30.70;101754.00;;;;5080476;28;20232;-80
2022/08/24 08:27:15;;;;;;;6.78;5.40;;;;;30.80;101749.00;;;;5082466;28;20298;-80
2022/08/24 08:29:43;;;;;;;7.53;5.00;;;;;31.00;101761.00;;;;5083969;28;20235;-80
2022/08/24 08:32:13;;;;;;;4.82;4.32;;;;;31.00;101761.00;;;;5080515;28;20205;-79
2022/08/24 08:34:40;;;;;;;8.73;5.57;;;;;31.10;101759.00;;;;5070406;28;20195;-79
2022/08/24 08:37:08;;;;;;;6.95;5.53;;;;;31.20;101756.00;;;;5085312;28;20222;-79
2022/08/24 08:39:36;;;;;;;9.18;5.10;;;;;31.30;101756.00;;;;5080687;28;20267;-79
2022/08/24 08:42:33;;;;;;;6.72;5.28;;;;;31.30;101750.00;;;;5081126;28;20321;-79
2022/08/24 08:45:25;;;;;;;6.22;3.33;;;;;31.40;101758.00;;;;5084652;28;20746;-81
2022/08/24 08:48:19;;;;;;;5.88;4.55;;;;;31.50;101759.00;;;;5093490;28;20194;-80
2022/08/24 08:51:24;;;;;;;6.43;4.40;;;;;31.60;101764.00;;;;5090644;28;20197;-79
2022/08/24 08:54:31;;;;;;;4.80;4.15;;;;;31.70;101764.00;;;;5087254;28;20202;-79
2022/08/24 08:57:23;;;;;;;7.03;5.07;;;;;31.80;101765.00;;;;5050744;28;20230;-80
2022/08/24 09:00:08;;;;;;;6.20;4.10;;;;;31.90;101760.00;;;;5093840;28;20213;-80
2022/08/24 09:03:20;;;;;;;7.22;3.85;;;;;32.00;101759.00;;;;5090292;28;20618;-81
2022/08/24 09:06:05;;;;;;;3.90;3.58;;;;;32.20;101756.00;;;;5088152;28;20269;-80
2022/08/24 09:08:56;;;;;;;4.80;3.72;;;;;32.30;101761.00;;;;5087012;28;20648;-80
2022/08/24 09:11:31;;;;;;;4.28;3.60;;;;;32.50;101762.00;;;;5091582;28;20194;-80
2022/08/24 09:14:24;;;;;;;5.07;3.30;;;;;32.60;101758.00;;;;5089826;28;20292;-80
2022/08/24 09:17:13;;;;;;;3.40;2.63;;;;;32.70;101764.00;;;;5078165;28;20233;-80
2022/08/24 09:19:54;;;;;;;3.60;2.88;;;;;32.80;101765.00;;;;5090350;28;20201;-81
2022/08/24 09:22:22;;;;;;;4.05;2.38;;;;;33.00;101767.00;;;;5089756;28;20186;-80
2022/08/24 09:25:07;;;;;;;5.30;3.00;;;;;33.10;101764.00;;;;5091415;28;20253;-80
2022/08/24 09:27:47;;;;;;;3.83;2.90;;;;;33.20;101768.00;;;;5090396;28;20221;-81
2022/08/24 09:30:20;;;;;;;3.78;3.05;;;;;33.30;101772.00;;;;5091992;28;20194;-80
2022/08/24 09:33:06;;;;;;;3.40;3.10;;;;;33.30;101768.00;;;;5093625;28;20556;-80
2022/08/24 09:35:59;;;;;;;3.78;3.08;;;;;33.50;101764.00;;;;5088466;28;20204;-79
2022/08/24 09:38:46;;;;;;;3.58;2.22;;;;;33.60;101766.00;;;;5089353;28;20243;-79
2022/08/24 09:41:34;;;;;;;3.10;2.80;;;;;33.60;101758.00;;;;5083706;28;20196;-79
2022/08/24 09:44:27;;;;;;;3.95;3.47;;;;;33.70;101765.00;;;;5083108;28;20374;-77
2022/08/24 09:47:22;;;;;;;2.55;2.15;;;;;33.90;101757.00;;;;5079923;28;20201;-77
2022/08/24 09:50:03;;;;;;;2.50;1.83;;;;;34.00;101756.00;;;;5079986;28;20227;-77
2022/08/24 09:53:12;;;;;;;2.10;1.90;;;;;34.10;101761.00;;;;5079330;28;20205;-77
2022/08/24 09:55:57;;;;;;;2.65;2.40;;;;;34.20;101760.00;;;;5082050;28;20205;-77
2022/08/24 09:58:39;;;;;;;1.75;1.63;;;;;34.40;101755.00;;;;5082785;28;20200;-78
2022/08/24 10:01:15;;;;;;;3.22;1.90;;;;;34.50;101766.00;;;;5082720;28;20197;-78
2022/08/24 10:04:02;;;;;;;4.15;1.77;;;;;34.60;101763.00;;;;5078127;28;20201;-77
2022/08/24 10:06:42;;;;;;;2.55;2.35;;;;;34.70;101766.00;;;;5081302;28;20204;-78
2022/08/24 10:09:35;;;;;;;3.30;1.92;;;;;34.70;101762.00;;;;5082475;28;20193;-78
2022/08/24 10:12:20;;;;;;;2.25;1.50;;;;;34.90;101765.00;;;;5082363;28;20196;-78
2022/08/24 10:14:55;;;;;;;2.38;1.42;;;;;34.90;101759.00;;;;5090163;28;20185;-78
2022/08/24 10:17:30;;;;;;;1.25;1.15;;;;;35.10;101753.00;;;;5088919;28;20227;-78
2022/08/24 10:20:12;;;;;;;1.70;1.60;;;;;35.10;101762.00;;;;5083950;28;20300;-79
2022/08/24 10:22:58;;;;;;;2.00;1.80;;;;;35.20;101759.00;;;;5086200;28;20197;-79
2022/08/24 10:25:34;;;;;;;2.42;2.00;;;;;35.30;101751.00;;;;5085129;28;20576;-81
2022/08/24 10:28:27;;;;;;;2.70;1.77;;;;;35.40;101755.00;;;;5087827;28;20253;-81
2022/08/24 10:31:02;;;;;;;3.42;1.48;;;;;35.40;101750.00;;;;5084309;28;20193;-80
2022/08/24 10:33:32;;;;;;;2.85;1.45;;;;;35.50;101748.00;;;;5083573;28;20564;-80
2022/08/24 10:36:15;;;;;;;2.00;1.35;;;;;35.40;101750.00;;;;5087699;28;20201;-78
2022/08/24 10:42:09;;;;;;;2.40;1.30;;;;;35.20;101749.00;;;;5089124;28;20197;-80
2022/08/24 10:44:46;;;;;;;1.70;1.60;;;;;35.20;101747.00;;;;5092286;28;20192;-80
2022/08/24 10:47:21;;;;;;;2.05;1.35;;;;;35.20;101748.00;;;;5088668;28;20232;-80
2022/08/24 10:50:25;;;;;;;3.03;1.67;;;;;35.10;101746.00;;;;5080469;28;20193;-80
2022/08/24 10:53:20;;;;;;;2.47;2.25;;;;;35.30;101737.00;;;;5088000;28;20193;-79
2022/08/24 10:55:59;;;;;;;2.33;1.85;;;;;35.40;101734.00;;;;5087849;28;20198;-80
2022/08/24 10:58:49;;;;;;;2.53;1.95;;;;;35.40;101734.00;;;;5089392;28;20676;-80
2022/08/24 11:01:21;;;;;;;2.08;1.88;;;;;35.60;101738.00;;;;5078684;28;20203;-79
2022/08/24 11:03:52;;;;;;;2.05;1.65;;;;;35.60;101746.00;;;;5069586;28;20206;-80
2022/08/24 11:06:21;;;;;;;1.50;1.40;;;;;35.70;101746.00;;;;5077172;28;20194;-79
2022/08/24 11:08:57;;;;;;;1.55;1.45;;;;;35.60;101741.00;;;;5088856;28;20289;-79
2022/08/24 11:11:32;;;;;;;2.38;1.35;;;;;35.70;101737.00;;;;5086125;28;20197;-79
2022/08/24 11:14:02;;;;;;;1.60;1.50;;;;;35.80;101740.00;;;;5088156;28;20208;-79
2022/08/24 11:16:35;;;;;;;2.40;1.98;;;;;35.80;101736.00;;;;5081283;28;20679;-80
2022/08/24 11:19:07;;;;;;;1.27;1.10;;;;;35.80;101736.00;;;;5087874;28;20816;-80
2022/08/24 11:21:42;;;;;;;3.38;1.13;;;;;35.80;101733.00;;;;5087233;28;20353;-80
2022/08/24 11:24:25;;;;;;;1.02;0.90;;;;;35.80;101733.00;;;;5087346;28;20595;-79
2022/08/24 11:26:57;;;;;;;2.25;1.00;;;;;35.90;101730.00;;;;5097555;28;20235;-80
2022/08/24 11:29:30;;;;;;;1.45;0.95;;;;;35.90;101726.00;;;;5086260;28;20198;-80
2022/08/24 11:31:58;;;;;;;2.67;1.20;;;;;36.00;101730.00;;;;5084007;28;20304;-80
2022/08/24 11:34:35;;;;;;;0.75;0.75;;;;;36.00;101724.00;;;;5086138;28;20193;-81
2022/08/24 11:37:04;;;;;;;0.95;0.80;;;;;36.00;101728.00;;;;5086846;28;20707;-79
2022/08/24 11:39:35;;;;;;;0.80;0.80;;;;;36.10;101728.00;;;;5088615;28;20190;-79
2022/08/24 11:42:12;;;;;;;2.28;0.93;;;;;36.10;101730.00;;;;5091074;28;20194;-79
2022/08/24 11:44:45;;;;;;;1.88;0.77;;;;;36.10;101736.00;;;;5089040;28;20204;-79
2022/08/24 11:47:46;;;;;;;1.10;0.63;;;;;36.10;101732.00;;;;5085799;28;20236;-79
2022/08/24 11:50:24;;;;;;;1.88;0.90;;;;;36.20;101728.00;;;;5087724;28;20197;-79
2022/08/24 11:53:00;;;;;;;1.23;1.05;;;;;36.20;101733.00;;;;5088081;28;20205;-79
2022/08/24 11:55:35;;;;;;;0.93;0.90;;;;;36.20;101730.00;;;;5088434;28;20198;-80
2022/08/24 11:58:11;;;;;;;1.00;0.90;;;;;36.20;101723.00;;;;5078923;28;20217;-80
2022/08/24 12:00:46;;;;;;;1.77;0.73;;;;;36.10;101730.00;;;;5074113;28;20209;-79
2022/08/24 12:03:33;;;;;;;1.15;1.05;;;;;36.10;101730.00;;;;5088187;28;20205;-80
2022/08/24 12:06:08;;;;;;;3.70;0.70;;;;;36.10;101730.00;;;;5088164;28;20524;-81
2022/08/24 12:08:44;;;;;;;1.83;0.88;;;;;36.00;101725.00;;;;5087929;28;20197;-80
2022/08/24 12:11:22;;;;;;;0.82;0.63;;;;;36.00;101729.00;;;;5086704;28;20189;-80
2022/08/24 12:13:55;;;;;;;0.77;0.75;;;;;36.00;101729.00;;;;5067594;28;20195;-80
2022/08/24 12:16:32;;;;;;;3.85;1.02;;;;;35.90;101736.00;;;;5081871;28;20557;-80
2022/08/24 12:19:05;;;;;;;0.98;0.70;;;;;35.90;101734.00;;;;5074425;28;20672;-80
2022/08/24 12:21:36;;;;;;;0.70;0.70;;;;;35.80;101727.00;;;;5072341;28;20198;-80
2022/08/24 12:24:07;;;;;;;4.68;1.20;;;;;35.80;101738.00;;;;5087882;28;20204;-80
2022/08/24 12:26:40;;;;;;;1.25;0.80;;;;;35.70;101736.00;;;;5092707;28;20355;-79
2022/08/24 12:29:12;;;;;;;1.58;0.85;;;;;35.60;101725.00;;;;5086622;28;20206;-80
2022/08/24 12:31:42;;;;;;;0.95;0.63;;;;;35.60;101726.00;;;;5086405;28;20221;-79
2022/08/24 12:34:16;;;;;;;0.85;0.82;;;;;35.50;101723.00;;;;5086989;28;20185;-79
2022/08/24 12:36:53;;;;;;;0.80;0.75;;;;;35.40;101723.00;;;;5087493;28;20216;-80
2022/08/24 12:39:26;;;;;;;1.10;1.00;;;;;35.40;101722.00;;;;5087298;28;20204;-79
2022/08/24 12:42:05;;;;;;;1.30;1.00;;;;;35.40;101716.00;;;;5075904;28;20197;-79